createdAt,value
2022-12-27T00:00:47.247Z,100.00
2022-12-27T00:01:44.674Z,100.00
2022-12-27T00:02:42.234Z,100.00
2022-12-27T00:03:39.668Z,100.00
2022-12-27T00:04:36.739Z,100.00
2022-12-27T00:05:33.570Z,100.00
2022-12-27T00:06:30.903Z,100.00
2022-12-27T00:07:27.705Z,100.00
2022-12-27T00:08:24.482Z,100.00
2022-12-27T00:09:21.373Z,100.00
2022-12-27T00:10:18.267Z,100.00
2022-12-27T00:11:19.516Z,100.00
2022-12-27T00:12:16.377Z,100.00
2022-12-27T00:13:13.200Z,100.00
2022-12-27T00:14:11.488Z,100.00
2022-12-27T00:15:08.789Z,100.00
2022-12-27T00:16:08.485Z,100.00
2022-12-27T00:17:05.331Z,100.00
2022-12-27T00:18:02.650Z,100.00
2022-12-27T00:18:59.734Z,100.00
2022-12-27T00:19:56.598Z,100.00
2022-12-27T00:20:58.978Z,100.00
2022-12-27T00:21:58.451Z,100.00
2022-12-27T00:22:55.247Z,100.00
2022-12-27T00:23:55.106Z,100.00
2022-12-27T00:24:51.952Z,100.00
2022-12-27T00:25:48.819Z,100.00
2022-12-27T00:26:45.559Z,100.00
2022-12-27T00:27:42.496Z,100.00
2022-12-27T00:28:39.306Z,100.00
2022-12-27T00:29:36.193Z,100.00
2022-12-27T00:30:33.085Z,100.00
2022-12-27T00:31:32.302Z,100.00
2022-12-27T00:32:29.316Z,100.00
2022-12-27T00:33:28.195Z,100.00
2022-12-27T00:34:25.120Z,100.00
2022-12-27T00:35:21.955Z,100.00
2022-12-27T00:36:21.683Z,100.00
2022-12-27T00:37:18.502Z,100.00
2022-12-27T00:38:15.296Z,100.00
2022-12-27T00:39:12.488Z,100.00
2022-12-27T00:40:10.171Z,100.00
2022-12-27T00:41:07.678Z,100.00
2022-12-27T00:42:04.788Z,100.00
2022-12-27T00:43:01.568Z,100.00
2022-12-27T00:43:58.363Z,100.00
2022-12-27T00:44:55.103Z,100.00
2022-12-27T00:45:51.996Z,100.00
2022-12-27T00:46:48.859Z,100.00
2022-12-27T00:47:45.706Z,100.00
2022-12-27T00:48:43.308Z,100.00
2022-12-27T00:49:40.077Z,100.00
2022-12-27T00:50:37.098Z,100.00
2022-12-27T00:51:33.904Z,100.00
2022-12-27T00:52:30.694Z,100.00
2022-12-27T00:53:31.032Z,100.00
2022-12-27T00:54:28.034Z,100.00
2022-12-27T00:55:24.879Z,100.00
2022-12-27T00:56:25.147Z,100.00
2022-12-27T00:57:21.978Z,100.00
2022-12-27T00:58:18.747Z,100.00
2022-12-27T00:59:15.550Z,100.00
2022-12-27T01:00:13.319Z,100.00
2022-12-27T01:01:21.619Z,100.00
2022-12-27T01:02:18.555Z,100.00
2022-12-27T01:03:16.717Z,100.00
2022-12-27T01:04:14.625Z,100.00
2022-12-27T01:05:11.531Z,100.00
2022-12-27T01:06:18.268Z,100.00
2022-12-27T01:07:14.991Z,100.00
2022-12-27T01:08:12.936Z,100.00
2022-12-27T01:09:09.775Z,100.00
2022-12-27T01:10:06.913Z,100.00
2022-12-27T01:11:04.911Z,100.00
2022-12-27T01:12:01.681Z,100.00
2022-12-27T01:13:00.994Z,100.00
2022-12-27T01:14:03.085Z,100.00
2022-12-27T01:14:59.988Z,100.00
2022-12-27T01:15:57.112Z,100.00
2022-12-27T01:16:54.006Z,100.00
2022-12-27T01:17:50.953Z,100.00
2022-12-27T01:18:48.744Z,100.00
2022-12-27T01:19:45.570Z,100.00
2022-12-27T01:20:42.355Z,100.00
2022-12-27T01:21:39.240Z,100.00
2022-12-27T01:22:36.123Z,100.00
2022-12-27T01:23:32.895Z,100.00
2022-12-27T01:24:29.650Z,100.00
2022-12-27T01:25:26.527Z,100.00
2022-12-27T01:26:24.648Z,100.00
2022-12-27T01:27:21.504Z,100.00
2022-12-27T01:28:18.289Z,100.00
2022-12-27T01:29:15.174Z,100.00
2022-12-27T01:30:12.523Z,100.00
2022-12-27T01:31:13.902Z,100.00
2022-12-27T01:32:10.829Z,100.00
2022-12-27T01:33:07.577Z,100.00
2022-12-27T01:34:04.389Z,100.00
2022-12-27T01:35:01.463Z,100.00
2022-12-27T01:35:58.303Z,100.00
2022-12-27T01:36:55.112Z,100.00
2022-12-27T01:37:52.193Z,100.00
2022-12-27T01:38:49.800Z,100.00
2022-12-27T01:39:46.647Z,100.00
2022-12-27T01:40:43.447Z,100.00
2022-12-27T01:42:01.586Z,100.00
2022-12-27T01:42:58.341Z,100.00
2022-12-27T01:43:55.099Z,100.00
2022-12-27T01:44:56.919Z,100.00
2022-12-27T01:45:53.984Z,100.00
2022-12-27T01:46:51.075Z,100.00
2022-12-27T01:47:57.038Z,100.00
2022-12-27T01:48:55.595Z,100.00
2022-12-27T01:49:55.295Z,100.00
2022-12-27T01:51:01.152Z,100.00
2022-12-27T01:51:58.768Z,100.00
2022-12-27T01:52:56.624Z,100.00
2022-12-27T01:53:54.221Z,100.00
2022-12-27T01:54:52.188Z,100.00
2022-12-27T01:56:02.192Z,100.00
2022-12-27T01:56:59.679Z,100.00
2022-12-27T01:58:13.468Z,100.00
2022-12-27T01:59:14.435Z,100.00
2022-12-27T02:00:12.347Z,100.00
2022-12-27T02:01:21.344Z,100.00
2022-12-27T02:02:18.579Z,100.00
2022-12-27T02:03:22.811Z,100.00
2022-12-27T02:04:24.048Z,100.00
2022-12-27T02:05:24.911Z,100.00
2022-12-27T02:06:23.749Z,100.00
2022-12-27T02:07:33.229Z,100.00
2022-12-27T02:08:54.600Z,100.00
2022-12-27T02:09:59.210Z,100.00
2022-12-27T02:10:58.756Z,100.00
2022-12-27T02:11:58.095Z,100.00
2022-12-27T02:12:55.576Z,100.00
2022-12-27T02:13:52.584Z,100.00
2022-12-27T02:14:50.110Z,100.00
2022-12-27T02:15:47.435Z,100.00
2022-12-27T02:16:44.283Z,100.00
2022-12-27T02:17:41.172Z,100.00
2022-12-27T02:18:38.307Z,100.00
2022-12-27T02:19:40.892Z,100.00
2022-12-27T02:21:19.136Z,100.00
2022-12-27T02:23:16.616Z,100.00
2022-12-27T02:24:22.033Z,100.00
2022-12-27T02:25:30.862Z,100.00
2022-12-27T02:26:45.303Z,100.00
2022-12-27T02:28:02.330Z,100.00
2022-12-27T02:29:05.113Z,100.00
2022-12-27T02:30:10.172Z,100.00
2022-12-27T02:31:16.118Z,100.00
2022-12-27T02:32:34.618Z,100.00
2022-12-27T02:33:42.382Z,100.00
2022-12-27T02:35:08.789Z,100.00
2022-12-27T02:36:12.667Z,100.00
2022-12-27T02:37:12.933Z,100.00
2022-12-27T02:38:18.112Z,100.00
2022-12-27T02:39:18.432Z,100.00
2022-12-27T02:40:39.129Z,100.00
2022-12-27T02:41:55.429Z,100.00
2022-12-27T02:43:11.993Z,100.00
2022-12-27T02:44:27.507Z,100.00
2022-12-27T02:45:52.110Z,100.00
2022-12-27T02:47:08.555Z,100.00
2022-12-27T02:48:33.534Z,100.00
2022-12-27T02:49:54.358Z,100.00
2022-12-27T02:51:41.295Z,100.00
2022-12-27T02:53:07.354Z,100.00
2022-12-27T02:54:33.520Z,100.00
2022-12-27T02:56:14.391Z,100.00
2022-12-27T02:57:32.713Z,100.00
2022-12-27T02:58:41.983Z,100.00
2022-12-27T03:00:20.646Z,100.00
2022-12-27T03:01:41.527Z,100.00
2022-12-27T03:03:13.789Z,100.00
2022-12-27T03:04:57.039Z,100.00
2022-12-27T03:06:39.797Z,100.00
2022-12-27T03:08:04.994Z,100.00
2022-12-27T03:09:50.971Z,100.00
2022-12-27T03:11:17.993Z,100.00
2022-12-27T03:13:10.872Z,100.00
2022-12-27T03:14:45.562Z,100.00
2022-12-27T03:15:57.565Z,100.00
2022-12-27T03:17:02.326Z,100.00
2022-12-27T03:18:14.973Z,100.00
2022-12-27T03:19:37.824Z,100.00
2022-12-27T03:20:55.270Z,100.00
2022-12-27T03:22:10.710Z,100.00
2022-12-27T03:23:28.723Z,100.00
2022-12-27T03:24:52.256Z,100.00
2022-12-27T03:25:54.510Z,100.00
2022-12-27T03:26:54.459Z,100.00
2022-12-27T03:28:25.274Z,100.00
2022-12-27T03:29:42.687Z,100.00
2022-12-27T03:31:00.562Z,100.00
2022-12-27T03:32:22.999Z,100.00
2022-12-27T03:33:19.995Z,100.00
2022-12-27T03:34:32.101Z,100.00
2022-12-27T03:35:35.497Z,100.00
2022-12-27T03:36:53.173Z,100.00
2022-12-27T03:38:05.165Z,100.00
2022-12-27T03:39:33.453Z,100.00
2022-12-27T03:41:04.058Z,100.00
2022-12-27T03:42:26.195Z,100.00
2022-12-27T03:43:23.082Z,100.00
2022-12-27T03:44:26.440Z,100.00
2022-12-27T03:45:43.154Z,100.00
2022-12-27T03:46:43.562Z,100.00
2022-12-27T03:47:55.335Z,100.00
2022-12-27T03:49:19.889Z,100.00
2022-12-27T03:50:28.784Z,100.00
2022-12-27T03:51:32.419Z,100.00
2022-12-27T03:52:48.432Z,100.00
2022-12-27T03:53:48.793Z,100.00
2022-12-27T03:54:50.287Z,100.00
2022-12-27T03:55:48.152Z,100.00
2022-12-27T03:56:45.022Z,100.00
2022-12-27T03:57:42.729Z,100.00
2022-12-27T03:58:39.634Z,100.00
2022-12-27T03:59:36.641Z,100.00
2022-12-27T04:00:33.531Z,100.00
2022-12-27T04:01:30.397Z,100.00
2022-12-27T04:02:27.399Z,100.00
2022-12-27T04:03:24.414Z,100.00
2022-12-27T04:04:24.113Z,100.00
2022-12-27T04:05:20.945Z,100.00
2022-12-27T04:06:17.742Z,100.00
2022-12-27T04:07:16.071Z,100.00
2022-12-27T04:08:31.671Z,100.00
2022-12-27T04:09:47.159Z,100.00
2022-12-27T04:11:04.707Z,100.00
2022-12-27T04:12:20.280Z,100.00
2022-12-27T04:13:35.846Z,100.00
2022-12-27T04:14:51.474Z,100.00
2022-12-27T04:16:06.970Z,100.00
2022-12-27T04:17:22.381Z,100.00
2022-12-27T04:18:37.473Z,100.00
2022-12-27T04:19:52.935Z,100.00
2022-12-27T04:21:08.507Z,100.00
2022-12-27T04:22:24.190Z,100.00
2022-12-27T04:23:40.135Z,100.00
2022-12-27T04:24:55.581Z,100.00
2022-12-27T04:26:11.155Z,100.00
2022-12-27T04:27:26.673Z,100.00
2022-12-27T04:28:42.141Z,100.00
2022-12-27T04:29:57.495Z,100.00
2022-12-27T04:31:12.951Z,100.00
2022-12-27T04:32:28.574Z,100.00
2022-12-27T04:33:44.108Z,100.00
2022-12-27T04:34:43.665Z,100.00
2022-12-27T04:35:40.556Z,100.00
2022-12-27T04:36:37.498Z,100.00
2022-12-27T04:37:34.325Z,100.00
2022-12-27T04:38:34.096Z,100.00
2022-12-27T04:39:31.190Z,100.00
2022-12-27T04:40:46.453Z,100.00
2022-12-27T04:42:01.946Z,100.00
2022-12-27T04:43:19.801Z,100.00
2022-12-27T04:44:36.347Z,100.00
2022-12-27T04:45:51.954Z,100.00
2022-12-27T04:47:07.488Z,100.00
2022-12-27T04:48:23.846Z,100.00
2022-12-27T04:49:45.393Z,100.00
2022-12-27T04:51:00.939Z,100.00
2022-12-27T04:52:16.579Z,100.00
2022-12-27T04:53:38.317Z,100.00
2022-12-27T04:54:53.763Z,100.00
2022-12-27T04:55:50.558Z,100.00
2022-12-27T04:56:47.320Z,100.00
2022-12-27T04:57:44.107Z,100.00
2022-12-27T04:59:00.866Z,100.00
2022-12-27T05:00:17.927Z,100.00
2022-12-27T05:01:33.574Z,100.00
2022-12-27T05:02:30.689Z,100.00
2022-12-27T05:03:27.783Z,100.00
2022-12-27T05:04:27.841Z,100.00
2022-12-27T05:05:25.788Z,100.00
2022-12-27T05:06:22.944Z,100.00
2022-12-27T05:07:39.317Z,100.00
2022-12-27T05:08:55.336Z,100.00
2022-12-27T05:10:11.158Z,100.00
2022-12-27T05:11:27.213Z,100.00
2022-12-27T05:12:42.609Z,100.00
2022-12-27T05:13:57.858Z,100.00
2022-12-27T05:14:54.806Z,100.00
2022-12-27T05:15:51.661Z,100.00
2022-12-27T05:16:48.590Z,100.00
2022-12-27T05:17:45.409Z,100.00
2022-12-27T05:18:42.411Z,100.00
2022-12-27T05:19:39.170Z,100.00
2022-12-27T05:20:35.938Z,100.00
2022-12-27T05:22:06.008Z,100.00
2022-12-27T05:23:21.256Z,100.00
2022-12-27T05:24:36.702Z,100.00
2022-12-27T05:25:38.328Z,100.00
2022-12-27T05:26:38.406Z,100.00
2022-12-27T05:27:35.248Z,100.00
2022-12-27T05:28:32.089Z,100.00
2022-12-27T05:29:30.804Z,100.00
2022-12-27T05:30:27.948Z,100.00
2022-12-27T05:31:26.559Z,100.00
2022-12-27T05:32:23.429Z,100.00
2022-12-27T05:33:20.264Z,100.00
2022-12-27T05:34:16.981Z,100.00
2022-12-27T05:35:13.890Z,100.00
2022-12-27T05:36:10.655Z,100.00
2022-12-27T05:37:08.572Z,100.00
2022-12-27T05:38:05.542Z,100.00
2022-12-27T05:39:02.538Z,100.00
2022-12-27T05:39:59.324Z,100.00
2022-12-27T05:41:00.644Z,100.00
2022-12-27T05:41:57.399Z,100.00
2022-12-27T05:42:54.856Z,100.00
2022-12-27T05:43:52.430Z,100.00
2022-12-27T05:44:49.214Z,100.00
2022-12-27T05:45:45.945Z,100.00
2022-12-27T05:46:42.790Z,100.00
2022-12-27T05:47:40.139Z,100.00
2022-12-27T05:48:37.761Z,100.00
2022-12-27T05:49:34.484Z,100.00
2022-12-27T05:50:31.478Z,100.00
2022-12-27T05:51:28.377Z,100.00
2022-12-27T05:52:25.274Z,100.00
2022-12-27T05:53:22.022Z,100.00
2022-12-27T05:54:18.810Z,100.00
2022-12-27T05:55:15.787Z,100.00
2022-12-27T05:56:18.260Z,100.00
2022-12-27T05:57:15.094Z,100.00
2022-12-27T05:58:11.992Z,100.00
2022-12-27T05:59:08.914Z,100.00
2022-12-27T06:00:06.781Z,100.00
2022-12-27T06:01:10.167Z,100.00
2022-12-27T06:02:07.101Z,100.00
2022-12-27T06:03:04.237Z,100.00
2022-12-27T06:04:01.096Z,100.00
2022-12-27T06:04:59.226Z,100.00
2022-12-27T06:06:04.282Z,100.00
2022-12-27T06:07:01.120Z,100.00
2022-12-27T06:07:58.147Z,100.00
2022-12-27T06:08:54.955Z,100.00
2022-12-27T06:09:51.775Z,100.00
2022-12-27T06:10:48.532Z,100.00
2022-12-27T06:11:45.266Z,100.00
2022-12-27T06:12:42.066Z,100.00
2022-12-27T06:13:42.228Z,100.00
2022-12-27T06:14:39.048Z,100.00
2022-12-27T06:15:37.094Z,100.00
2022-12-27T06:16:33.928Z,100.00
2022-12-27T06:17:30.881Z,100.00
2022-12-27T06:18:33.245Z,100.00
2022-12-27T06:19:30.076Z,100.00
2022-12-27T06:20:27.385Z,100.00
2022-12-27T06:21:24.389Z,100.00
2022-12-27T06:22:21.118Z,100.00
2022-12-27T06:23:20.024Z,100.00
2022-12-27T06:24:17.421Z,100.00
2022-12-27T06:25:14.837Z,100.00
2022-12-27T06:26:18.124Z,100.00
2022-12-27T06:27:18.931Z,100.00
2022-12-27T06:28:15.746Z,100.00
2022-12-27T06:29:21.553Z,100.00
2022-12-27T06:30:18.335Z,100.00
2022-12-27T06:31:19.280Z,100.00
2022-12-27T06:32:17.823Z,100.00
2022-12-27T06:33:14.653Z,100.00
2022-12-27T06:34:11.759Z,100.00
2022-12-27T06:35:11.386Z,100.00
2022-12-27T06:36:13.754Z,100.00
2022-12-27T06:37:14.692Z,100.00
2022-12-27T06:38:11.554Z,100.00
2022-12-27T06:39:08.405Z,100.00
2022-12-27T06:40:05.763Z,100.00
2022-12-27T06:41:08.342Z,100.00
2022-12-27T06:42:07.587Z,100.00
2022-12-27T06:43:04.325Z,100.00
2022-12-27T06:44:01.146Z,100.00
2022-12-27T06:44:57.957Z,100.00
2022-12-27T06:46:12.321Z,100.00
2022-12-27T06:47:22.626Z,100.00
2022-12-27T06:48:19.372Z,100.00
2022-12-27T06:49:26.597Z,100.00
2022-12-27T06:50:23.511Z,100.00
2022-12-27T06:51:21.453Z,100.00
2022-12-27T06:52:18.309Z,100.00
2022-12-27T06:53:15.091Z,100.00
2022-12-27T06:54:13.963Z,100.00
2022-12-27T06:55:10.746Z,100.00
2022-12-27T06:56:13.275Z,100.00
2022-12-27T06:57:10.086Z,100.00
2022-12-27T06:58:06.844Z,100.00
2022-12-27T06:59:03.773Z,100.00
2022-12-27T07:00:00.664Z,100.00
2022-12-27T07:00:57.500Z,100.00
2022-12-27T07:01:57.104Z,100.00
2022-12-27T07:02:55.942Z,100.00
2022-12-27T07:04:06.662Z,100.00
2022-12-27T07:05:08.274Z,100.00
2022-12-27T07:06:12.001Z,100.00
2022-12-27T07:07:15.588Z,100.00
2022-12-27T07:08:12.994Z,100.00
2022-12-27T07:09:09.845Z,100.00
2022-12-27T07:10:14.657Z,100.00
2022-12-27T07:11:13.487Z,100.00
2022-12-27T07:12:15.028Z,100.00
2022-12-27T07:13:13.209Z,100.00
2022-12-27T07:14:12.788Z,100.00
2022-12-27T07:15:16.028Z,100.00
2022-12-27T07:16:20.392Z,100.00
2022-12-27T07:17:19.963Z,100.00
2022-12-27T07:18:16.709Z,100.00
2022-12-27T07:19:13.634Z,100.00
2022-12-27T07:20:15.614Z,100.00
2022-12-27T07:22:50.740Z,100.00
2022-12-27T07:24:00.473Z,100.00
2022-12-27T07:25:01.605Z,100.00
2022-12-27T07:26:37.291Z,100.00
2022-12-27T07:27:53.619Z,100.00
2022-12-27T07:28:54.951Z,100.00
2022-12-27T07:29:52.004Z,100.00
2022-12-27T07:30:53.102Z,100.00
2022-12-27T07:31:53.117Z,100.00
2022-12-27T07:32:53.770Z,100.00
2022-12-27T07:33:53.702Z,100.00
2022-12-27T07:34:56.160Z,100.00
2022-12-27T07:36:03.900Z,100.00
2022-12-27T07:37:00.751Z,100.00
2022-12-27T07:38:10.883Z,100.00
2022-12-27T07:39:19.697Z,100.00
2022-12-27T07:40:25.647Z,100.00
2022-12-27T07:41:50.513Z,100.00
2022-12-27T07:42:50.524Z,100.00
2022-12-27T07:43:51.789Z,100.00
2022-12-27T07:45:09.695Z,100.00
2022-12-27T07:46:11.331Z,100.00
2022-12-27T07:47:40.157Z,100.00
2022-12-27T07:49:00.420Z,100.00
2022-12-27T07:52:24.715Z,100.00
2022-12-27T07:54:00.763Z,100.00
2022-12-27T07:55:04.089Z,100.00
2022-12-27T07:56:26.119Z,100.00
2022-12-27T07:57:24.760Z,100.00
2022-12-27T07:58:31.807Z,100.00
2022-12-27T07:59:32.917Z,100.00
2022-12-27T08:00:30.255Z,100.00
2022-12-27T08:01:54.864Z,100.00
2022-12-27T08:02:58.347Z,100.00
2022-12-27T08:05:27.564Z,100.00
2022-12-27T08:06:38.813Z,100.00
2022-12-27T08:07:39.352Z,100.00
2022-12-27T08:08:45.034Z,100.00
2022-12-27T08:09:49.892Z,100.00
2022-12-27T08:10:59.341Z,100.00
2022-12-27T08:12:14.274Z,100.00
2022-12-27T08:13:11.325Z,100.00
2022-12-27T08:14:08.139Z,100.00
2022-12-27T08:15:05.384Z,100.00
2022-12-27T08:16:06.274Z,100.00
2022-12-27T08:17:14.637Z,100.00
2022-12-27T08:18:11.439Z,100.00
2022-12-27T08:20:21.624Z,100.00
2022-12-27T08:21:21.287Z,100.00
2022-12-27T08:22:20.131Z,100.00
2022-12-27T08:23:17.303Z,100.00
2022-12-27T08:25:28.850Z,100.00
2022-12-27T08:26:25.720Z,100.00
2022-12-27T08:27:24.621Z,100.00
2022-12-27T08:28:23.689Z,100.00
2022-12-27T08:29:20.611Z,100.00
2022-12-27T08:30:20.077Z,100.00
2022-12-27T08:31:19.450Z,100.00
2022-12-27T08:32:21.092Z,100.00
2022-12-27T08:33:19.635Z,100.00
2022-12-27T08:34:19.155Z,100.00
2022-12-27T08:35:50.875Z,100.00
2022-12-27T08:37:49.660Z,100.00
2022-12-27T08:38:46.442Z,100.00
2022-12-27T08:39:48.022Z,100.00
2022-12-27T08:40:50.286Z,100.00
2022-12-27T08:41:47.640Z,100.00
2022-12-27T08:42:47.556Z,100.00
2022-12-27T08:43:44.396Z,100.00
2022-12-27T08:44:41.296Z,100.00
2022-12-27T08:45:39.869Z,100.00
2022-12-27T08:46:41.999Z,100.00
2022-12-27T08:47:44.123Z,100.00
2022-12-27T08:48:43.304Z,100.00
2022-12-27T08:49:40.220Z,100.00
2022-12-27T08:50:55.777Z,100.00
2022-12-27T08:52:01.740Z,100.00
2022-12-27T08:53:15.371Z,100.00
2022-12-27T08:54:47.039Z,100.00
2022-12-27T08:55:46.706Z,100.00
2022-12-27T08:56:51.443Z,100.00
2022-12-27T08:57:58.725Z,100.00
2022-12-27T08:58:58.154Z,100.00
2022-12-27T09:00:04.069Z,100.00
2022-12-27T09:01:13.660Z,100.00
2022-12-27T09:02:30.436Z,100.00
2022-12-27T09:03:34.194Z,100.00
2022-12-27T09:04:36.128Z,100.00
2022-12-27T09:05:41.361Z,100.00
2022-12-27T09:06:43.191Z,100.00
2022-12-27T09:07:40.009Z,100.00
2022-12-27T09:08:40.127Z,100.00
2022-12-27T09:09:36.831Z,100.00
2022-12-27T09:10:39.216Z,100.00
2022-12-27T09:11:50.484Z,100.00
2022-12-27T09:12:47.767Z,100.00
2022-12-27T09:13:51.338Z,100.00
2022-12-27T09:15:19.495Z,100.00
2022-12-27T09:16:22.014Z,100.00
2022-12-27T09:17:32.988Z,100.00
2022-12-27T09:18:32.842Z,100.00
2022-12-27T09:19:35.482Z,100.00
2022-12-27T09:20:39.775Z,100.00
2022-12-27T09:21:43.077Z,100.00
2022-12-27T09:22:44.615Z,100.00
2022-12-27T09:23:49.675Z,100.00
2022-12-27T09:25:03.511Z,100.00
2022-12-27T09:26:54.488Z,100.00
2022-12-27T09:27:53.559Z,100.00
2022-12-27T09:29:06.869Z,100.00
2022-12-27T09:30:09.728Z,100.00
2022-12-27T09:31:18.859Z,100.00
2022-12-27T09:32:15.838Z,100.00
2022-12-27T09:33:18.924Z,100.00
2022-12-27T09:34:15.748Z,100.00
2022-12-27T09:35:15.744Z,100.00
2022-12-27T09:36:16.791Z,100.00
2022-12-27T09:37:16.383Z,100.00
2022-12-27T09:38:13.259Z,100.00
2022-12-27T09:39:27.912Z,100.00
2022-12-27T09:40:24.735Z,100.00
2022-12-27T09:42:47.693Z,100.00
2022-12-27T09:44:01.378Z,100.00
2022-12-27T09:45:23.810Z,100.00
2022-12-27T09:46:48.381Z,100.00
2022-12-27T09:47:50.704Z,100.00
2022-12-27T09:48:51.521Z,100.00
2022-12-27T09:49:59.834Z,100.00
2022-12-27T09:51:03.621Z,100.00
2022-12-27T09:52:12.555Z,100.00
2022-12-27T09:53:17.620Z,100.00
2022-12-27T09:54:25.931Z,100.00
2022-12-27T09:56:01.261Z,100.00
2022-12-27T09:57:19.547Z,100.00
2022-12-27T09:58:36.094Z,100.00
2022-12-27T09:59:59.173Z,100.00
2022-12-27T10:01:00.615Z,100.00
2022-12-27T10:01:57.618Z,100.00
2022-12-27T10:02:54.699Z,100.00
2022-12-27T10:03:55.235Z,100.00
2022-12-27T10:06:26.192Z,100.00
2022-12-27T10:07:47.951Z,100.00
2022-12-27T10:09:07.833Z,100.00
2022-12-27T10:10:20.394Z,100.00
2022-12-27T10:11:43.528Z,100.00
2022-12-27T10:13:08.168Z,100.00
2022-12-27T10:14:25.808Z,100.00
2022-12-27T10:15:28.483Z,100.00
2022-12-27T10:16:48.570Z,100.00
2022-12-27T10:18:03.627Z,100.00
2022-12-27T10:19:28.016Z,100.00
2022-12-27T10:21:12.493Z,100.00
2022-12-27T10:22:36.706Z,100.00
2022-12-27T10:23:38.250Z,100.00
2022-12-27T10:24:48.080Z,100.00
2022-12-27T10:25:47.458Z,100.00
2022-12-27T10:26:45.975Z,100.00
2022-12-27T10:27:42.885Z,100.00
2022-12-27T10:28:57.123Z,100.00
2022-12-27T10:29:57.328Z,100.00
2022-12-27T10:30:54.404Z,100.00
2022-12-27T10:31:51.948Z,100.00
2022-12-27T10:32:49.895Z,100.00
2022-12-27T10:33:53.346Z,100.00
2022-12-27T10:35:02.778Z,100.00
2022-12-27T10:36:09.432Z,100.00
2022-12-27T10:37:15.777Z,100.00
2022-12-27T10:38:12.603Z,100.00
2022-12-27T10:39:19.920Z,100.00
2022-12-27T10:40:34.637Z,100.00
2022-12-27T10:41:54.223Z,100.00
2022-12-27T10:43:03.878Z,100.00
2022-12-27T10:44:00.784Z,100.00
2022-12-27T10:45:41.157Z,100.00
2022-12-27T10:46:41.434Z,100.00
2022-12-27T10:47:38.623Z,100.00
2022-12-27T10:49:10.898Z,100.00
2022-12-27T10:50:15.297Z,100.00
2022-12-27T10:51:12.377Z,100.00
2022-12-27T10:52:28.517Z,100.00
2022-12-27T10:53:38.324Z,100.00
2022-12-27T10:54:50.428Z,100.00
2022-12-27T10:55:49.875Z,100.00
2022-12-27T10:56:47.640Z,100.00
2022-12-27T10:57:44.511Z,100.00
2022-12-27T10:58:58.203Z,100.00
2022-12-27T11:00:15.653Z,100.00
2022-12-27T11:01:17.944Z,100.00
2022-12-27T11:02:18.804Z,100.00
2022-12-27T11:03:19.710Z,100.00
2022-12-27T11:04:24.564Z,100.00
2022-12-27T11:05:28.001Z,100.00
2022-12-27T11:06:31.559Z,100.00
2022-12-27T11:07:34.145Z,100.00
2022-12-27T11:08:40.189Z,100.00
2022-12-27T11:09:50.339Z,100.00
2022-12-27T11:10:48.075Z,100.00
2022-12-27T11:11:44.878Z,100.00
2022-12-27T11:13:00.559Z,100.00
2022-12-27T11:14:11.638Z,100.00
2022-12-27T11:15:20.256Z,100.00
2022-12-27T11:16:34.765Z,100.00
2022-12-27T11:17:49.462Z,100.00
2022-12-27T11:18:53.719Z,100.00
2022-12-27T11:19:50.889Z,100.00
2022-12-27T11:20:50.381Z,100.00
2022-12-27T11:21:47.515Z,100.00
2022-12-27T11:23:16.234Z,100.00
2022-12-27T11:24:17.981Z,100.00
2022-12-27T11:25:19.511Z,100.00
2022-12-27T11:26:26.935Z,100.00
2022-12-27T11:27:30.868Z,100.00
2022-12-27T11:28:42.345Z,100.00
2022-12-27T11:29:45.692Z,100.00
2022-12-27T11:31:00.262Z,100.00
2022-12-27T11:32:08.488Z,100.00
2022-12-27T11:33:44.228Z,100.00
2022-12-27T11:35:27.631Z,100.00
2022-12-27T11:36:33.056Z,100.00
2022-12-27T11:37:36.175Z,100.00
2022-12-27T11:38:36.662Z,100.00
2022-12-27T11:39:47.249Z,100.00
2022-12-27T11:41:01.993Z,100.00
2022-12-27T11:42:02.398Z,100.00
2022-12-27T11:43:15.568Z,100.00
2022-12-27T11:44:22.680Z,100.00
2022-12-27T11:45:33.438Z,100.00
2022-12-27T11:47:08.935Z,100.00
2022-12-27T11:48:21.054Z,100.00
2022-12-27T11:49:26.309Z,100.00
2022-12-27T11:50:28.861Z,100.00
2022-12-27T11:51:56.699Z,100.00
2022-12-27T11:53:08.333Z,100.00
2022-12-27T11:54:35.283Z,100.00
2022-12-27T11:55:56.503Z,100.00
2022-12-27T11:57:01.586Z,100.00
2022-12-27T11:58:30.299Z,100.00
2022-12-27T11:59:59.794Z,100.00
2022-12-27T12:01:00.554Z,100.00
2022-12-27T12:02:41.744Z,100.00
2022-12-27T12:04:04.940Z,100.00
2022-12-27T12:05:32.194Z,100.00
2022-12-27T12:06:34.818Z,100.00
2022-12-27T12:07:40.105Z,100.00
2022-12-27T12:08:39.512Z,100.00
2022-12-27T12:09:53.903Z,100.00
2022-12-27T12:11:14.756Z,100.00
2022-12-27T12:12:32.376Z,100.00
2022-12-27T12:13:57.372Z,100.00
2022-12-27T12:15:25.332Z,100.00
2022-12-27T12:16:37.026Z,100.00
2022-12-27T12:18:08.128Z,100.00
2022-12-27T12:19:07.793Z,100.00
2022-12-27T12:20:34.455Z,100.00
2022-12-27T12:22:00.188Z,100.00
2022-12-27T12:23:32.446Z,100.00
2022-12-27T12:24:42.185Z,100.00
2022-12-27T12:26:11.878Z,100.00
2022-12-27T12:27:46.646Z,100.00
2022-12-27T12:29:01.580Z,100.00
2022-12-27T12:30:16.701Z,100.00
2022-12-27T12:31:25.254Z,100.00
2022-12-27T12:32:52.786Z,98.67
2022-12-27T12:33:55.228Z,98.20
2022-12-27T12:35:21.572Z,97.82
2022-12-27T12:36:21.322Z,96.43
2022-12-27T12:37:32.862Z,95.09
2022-12-27T12:38:52.668Z,95.01
2022-12-27T12:40:18.693Z,94.37
2022-12-27T12:41:37.396Z,93.62
2022-12-27T12:43:14.030Z,92.77
2022-12-27T12:44:16.204Z,92.50
2022-12-27T12:45:32.995Z,93.30
2022-12-27T12:46:57.738Z,92.78
2022-12-27T12:48:25.804Z,92.09
2022-12-27T12:49:31.471Z,92.36
2022-12-27T12:50:52.993Z,92.65
2022-12-27T12:52:10.804Z,92.46
2022-12-27T12:53:34.503Z,92.96
2022-12-27T12:55:09.060Z,93.49
2022-12-27T12:56:34.506Z,93.63
2022-12-27T12:57:31.299Z,93.32
2022-12-27T12:58:59.914Z,93.44
2022-12-27T13:00:35.670Z,94.57
2022-12-27T13:02:06.553Z,94.82
2022-12-27T13:03:47.517Z,95.51
2022-12-27T13:05:24.646Z,96.38
2022-12-27T13:06:39.270Z,97.40
2022-12-27T13:08:09.650Z,97.99
2022-12-27T13:09:24.772Z,97.84
2022-12-27T13:11:00.252Z,96.37
2022-12-27T13:12:24.924Z,96.10
2022-12-27T13:14:01.644Z,96.11
2022-12-27T13:15:02.396Z,95.73
2022-12-27T13:16:12.713Z,95.17
2022-12-27T13:17:32.052Z,95.10
2022-12-27T13:18:59.521Z,93.90
2022-12-27T13:20:35.143Z,93.73
2022-12-27T13:22:22.925Z,94.54
2022-12-27T13:23:34.659Z,96.33
2022-12-27T13:24:55.246Z,96.16
2022-12-27T13:26:11.953Z,96.25
2022-12-27T13:27:56.281Z,97.51
2022-12-27T13:29:07.940Z,96.57
2022-12-27T13:30:20.444Z,96.25
2022-12-27T13:31:59.641Z,96.45
2022-12-27T13:32:59.134Z,97.75
2022-12-27T13:33:57.210Z,97.26
2022-12-27T13:35:31.287Z,97.90
2022-12-27T13:37:25.131Z,97.61
2022-12-27T13:38:54.220Z,98.28
2022-12-27T13:40:29.747Z,97.97
2022-12-27T13:41:32.296Z,97.76
2022-12-27T13:42:35.097Z,97.60
2022-12-27T13:43:56.686Z,97.93
2022-12-27T13:44:53.396Z,98.76
2022-12-27T13:46:25.190Z,98.65
2022-12-27T13:47:54.648Z,99.07
2022-12-27T13:49:09.745Z,99.74
2022-12-27T13:50:34.324Z,100.00
2022-12-27T13:51:50.815Z,100.00
2022-12-27T13:53:00.123Z,100.00
2022-12-27T13:53:57.211Z,100.00
2022-12-27T13:55:18.403Z,100.00
2022-12-27T13:56:55.641Z,100.00
2022-12-27T13:58:26.383Z,100.00
2022-12-27T13:59:44.427Z,100.00
2022-12-27T14:00:55.198Z,100.00
2022-12-27T14:02:19.911Z,100.00
2022-12-27T14:03:49.069Z,100.00
2022-12-27T14:05:20.394Z,100.00
2022-12-27T14:06:26.818Z,100.00
2022-12-27T14:07:52.375Z,100.00
2022-12-27T14:09:23.066Z,100.00
2022-12-27T14:10:28.652Z,100.00
2022-12-27T14:11:47.698Z,100.00
2022-12-27T14:12:47.118Z,100.00
2022-12-27T14:13:48.395Z,100.00